sensor_id;sensor_type;location;lat;lon;timestamp;P1;durP1;ratioP1;P2;durP2;ratioP2
69034;SDS011;56091;55.756;37.412;2023-07-30T00:04:54;20.27;;;8.60;;
69034;SDS011;56091;55.756;37.412;2023-07-30T00:09:58;15.07;;;7.90;;
69034;SDS011;56091;55.756;37.412;2023-07-30T00:14:59;14.00;;;7.60;;
69034;SDS011;56091;55.756;37.412;2023-07-30T00:20:08;13.20;;;6.87;;
69034;SDS011;56091;55.756;37.412;2023-07-30T00:25:12;13.48;;;7.85;;
69034;SDS011;56091;55.756;37.412;2023-07-30T00:30:12;15.80;;;8.88;;
69034;SDS011;56091;55.756;37.412;2023-07-30T00:35:13;13.80;;;7.50;;
69034;SDS011;56091;55.756;37.412;2023-07-30T00:40:14;13.77;;;8.30;;
69034;SDS011;56091;55.756;37.412;2023-07-30T00:45:14;13.60;;;7.70;;
69034;SDS011;56091;55.756;37.412;2023-07-30T00:50:15;12.77;;;6.75;;
69034;SDS011;56091;55.756;37.412;2023-07-30T00:55:17;14.30;;;8.53;;
69034;SDS011;56091;55.756;37.412;2023-07-30T01:00:18;14.67;;;8.70;;
69034;SDS011;56091;55.756;37.412;2023-07-30T01:05:19;14.40;;;8.63;;
69034;SDS011;56091;55.756;37.412;2023-07-30T01:10:21;16.67;;;9.37;;
69034;SDS011;56091;55.756;37.412;2023-07-30T01:15:22;20.73;;;10.27;;
69034;SDS011;56091;55.756;37.412;2023-07-30T01:25:31;18.20;;;9.15;;
69034;SDS011;56091;55.756;37.412;2023-07-30T01:30:37;17.77;;;10.02;;
69034;SDS011;56091;55.756;37.412;2023-07-30T01:35:40;19.80;;;9.83;;
69034;SDS011;56091;55.756;37.412;2023-07-30T01:40:43;18.05;;;10.57;;
69034;SDS011;56091;55.756;37.412;2023-07-30T01:45:43;17.07;;;9.93;;
69034;SDS011;56091;55.756;37.412;2023-07-30T01:55:52;18.80;;;9.93;;
69034;SDS011;56091;55.756;37.412;2023-07-30T02:00:53;16.50;;;9.20;;
69034;SDS011;56091;55.756;37.412;2023-07-30T02:05:53;17.63;;;9.57;;
69034;SDS011;56091;55.756;37.412;2023-07-30T02:10:57;16.55;;;9.07;;
69034;SDS011;56091;55.756;37.412;2023-07-30T02:15:58;18.53;;;8.40;;
69034;SDS011;56091;55.756;37.412;2023-07-30T02:20:59;16.90;;;8.57;;
69034;SDS011;56091;55.756;37.412;2023-07-30T02:26:00;15.57;;;9.40;;
69034;SDS011;56091;55.756;37.412;2023-07-30T02:31:04;17.58;;;8.95;;
69034;SDS011;56091;55.756;37.412;2023-07-30T02:36:04;20.57;;;8.33;;
69034;SDS011;56091;55.756;37.412;2023-07-30T02:41:05;15.88;;;7.78;;
69034;SDS011;56091;55.756;37.412;2023-07-30T02:46:06;14.20;;;7.83;;
69034;SDS011;56091;55.756;37.412;2023-07-30T02:51:07;13.63;;;7.18;;
69034;SDS011;56091;55.756;37.412;2023-07-30T02:56:08;14.17;;;8.17;;
69034;SDS011;56091;55.756;37.412;2023-07-30T03:01:09;13.37;;;7.73;;
69034;SDS011;56091;55.756;37.412;2023-07-30T03:06:10;15.05;;;7.82;;
69034;SDS011;56091;55.756;37.412;2023-07-30T03:11:10;14.67;;;8.20;;
69034;SDS011;56091;55.756;37.412;2023-07-30T03:16:11;11.63;;;6.53;;
69034;SDS011;56091;55.756;37.412;2023-07-30T03:21:12;13.00;;;6.83;;
69034;SDS011;56091;55.756;37.412;2023-07-30T03:26:14;13.63;;;7.35;;
69034;SDS011;56091;55.756;37.412;2023-07-30T03:31:15;13.90;;;6.00;;
69034;SDS011;56091;55.756;37.412;2023-07-30T03:36:16;12.02;;;6.97;;
69034;SDS011;56091;55.756;37.412;2023-07-30T03:41:16;12.57;;;6.73;;
69034;SDS011;56091;55.756;37.412;2023-07-30T03:46:17;16.53;;;6.60;;
69034;SDS011;56091;55.756;37.412;2023-07-30T03:51:18;11.83;;;6.43;;
69034;SDS011;56091;55.756;37.412;2023-07-30T03:56:19;11.50;;;5.60;;
69034;SDS011;56091;55.756;37.412;2023-07-30T04:01:20;15.15;;;5.80;;
69034;SDS011;56091;55.756;37.412;2023-07-30T04:06:23;11.73;;;5.90;;
69034;SDS011;56091;55.756;37.412;2023-07-30T04:11:24;11.95;;;5.90;;
69034;SDS011;56091;55.756;37.412;2023-07-30T04:16:25;11.57;;;5.40;;
69034;SDS011;56091;55.756;37.412;2023-07-30T04:21:27;11.65;;;5.45;;
69034;SDS011;56091;55.756;37.412;2023-07-30T04:26:31;10.33;;;5.37;;
69034;SDS011;56091;55.756;37.412;2023-07-30T04:31:31;9.85;;;5.20;;
69034;SDS011;56091;55.756;37.412;2023-07-30T04:36:33;11.17;;;5.37;;
69034;SDS011;56091;55.756;37.412;2023-07-30T04:41:34;10.35;;;5.57;;
69034;SDS011;56091;55.756;37.412;2023-07-30T04:46:35;9.60;;;5.13;;
69034;SDS011;56091;55.756;37.412;2023-07-30T04:51:36;10.65;;;5.20;;
69034;SDS011;56091;55.756;37.412;2023-07-30T04:56:38;11.47;;;4.67;;
69034;SDS011;56091;55.756;37.412;2023-07-30T05:01:40;8.30;;;3.90;;
69034;SDS011;56091;55.756;37.412;2023-07-30T05:06:43;10.82;;;4.20;;
69034;SDS011;56091;55.756;37.412;2023-07-30T05:11:43;8.77;;;4.17;;
69034;SDS011;56091;55.756;37.412;2023-07-30T05:16:44;8.73;;;3.83;;
69034;SDS011;56091;55.756;37.412;2023-07-30T05:21:45;9.83;;;4.17;;
69034;SDS011;56091;55.756;37.412;2023-07-30T05:26:45;7.90;;;4.17;;
69034;SDS011;56091;55.756;37.412;2023-07-30T05:31:46;7.95;;;3.85;;
69034;SDS011;56091;55.756;37.412;2023-07-30T05:36:46;6.87;;;3.73;;
69034;SDS011;56091;55.756;37.412;2023-07-30T05:41:47;7.93;;;3.77;;
69034;SDS011;56091;55.756;37.412;2023-07-30T05:46:47;8.50;;;4.00;;
69034;SDS011;56091;55.756;37.412;2023-07-30T05:51:48;9.05;;;3.70;;
69034;SDS011;56091;55.756;37.412;2023-07-30T05:56:49;8.60;;;3.40;;
69034;SDS011;56091;55.756;37.412;2023-07-30T06:01:50;6.40;;;3.47;;
69034;SDS011;56091;55.756;37.412;2023-07-30T06:06:50;7.38;;;3.40;;
69034;SDS011;56091;55.756;37.412;2023-07-30T06:11:55;7.00;;;2.90;;
69034;SDS011;56091;55.756;37.412;2023-07-30T06:16:56;8.75;;;3.30;;
69034;SDS011;56091;55.756;37.412;2023-07-30T06:21:57;7.60;;;3.33;;
69034;SDS011;56091;55.756;37.412;2023-07-30T06:26:57;6.35;;;3.50;;
69034;SDS011;56091;55.756;37.412;2023-07-30T06:31:58;6.67;;;3.40;;
69034;SDS011;56091;55.756;37.412;2023-07-30T06:36:59;6.47;;;3.00;;
69034;SDS011;56091;55.756;37.412;2023-07-30T06:42:00;7.37;;;3.10;;
69034;SDS011;56091;55.756;37.412;2023-07-30T06:47:01;7.23;;;3.20;;
69034;SDS011;56091;55.756;37.412;2023-07-30T06:52:01;8.90;;;3.33;;
69034;SDS011;56091;55.756;37.412;2023-07-30T06:57:02;6.87;;;2.90;;
69034;SDS011;56091;55.756;37.412;2023-07-30T07:02:03;5.73;;;2.73;;
69034;SDS011;56091;55.756;37.412;2023-07-30T07:07:05;6.60;;;2.90;;
69034;SDS011;56091;55.756;37.412;2023-07-30T07:12:06;8.50;;;2.90;;
69034;SDS011;56091;55.756;37.412;2023-07-30T07:17:07;6.97;;;2.90;;
69034;SDS011;56091;55.756;37.412;2023-07-30T07:22:07;7.17;;;2.60;;
69034;SDS011;56091;55.756;37.412;2023-07-30T07:27:08;6.80;;;3.00;;
69034;SDS011;56091;55.756;37.412;2023-07-30T07:32:09;8.50;;;2.50;;
69034;SDS011;56091;55.756;37.412;2023-07-30T07:37:10;6.72;;;2.63;;
69034;SDS011;56091;55.756;37.412;2023-07-30T07:42:11;6.83;;;2.80;;
69034;SDS011;56091;55.756;37.412;2023-07-30T07:47:11;6.57;;;2.40;;
69034;SDS011;56091;55.756;37.412;2023-07-30T07:52:12;7.77;;;2.90;;
69034;SDS011;56091;55.756;37.412;2023-07-30T07:57:13;7.63;;;2.20;;
69034;SDS011;56091;55.756;37.412;2023-07-30T08:02:18;6.00;;;2.60;;
69034;SDS011;56091;55.756;37.412;2023-07-30T08:07:19;5.30;;;2.20;;
69034;SDS011;56091;55.756;37.412;2023-07-30T08:12:20;6.93;;;2.57;;
69034;SDS011;56091;55.756;37.412;2023-07-30T08:17:23;5.47;;;2.25;;
69034;SDS011;56091;55.756;37.412;2023-07-30T08:22:24;7.17;;;2.60;;
69034;SDS011;56091;55.756;37.412;2023-07-30T08:27:25;5.82;;;2.53;;
69034;SDS011;56091;55.756;37.412;2023-07-30T08:32:25;5.47;;;2.43;;
69034;SDS011;56091;55.756;37.412;2023-07-30T08:37:26;5.07;;;2.10;;
69034;SDS011;56091;55.756;37.412;2023-07-30T08:42:27;5.40;;;2.17;;
69034;SDS011;56091;55.756;37.412;2023-07-30T08:47:27;7.27;;;2.23;;
69034;SDS011;56091;55.756;37.412;2023-07-30T08:52:34;5.60;;;2.43;;
69034;SDS011;56091;55.756;37.412;2023-07-30T08:57:37;6.40;;;2.70;;
69034;SDS011;56091;55.756;37.412;2023-07-30T09:07:39;5.40;;;2.33;;
69034;SDS011;56091;55.756;37.412;2023-07-30T09:12:40;5.72;;;2.42;;
69034;SDS011;56091;55.756;37.412;2023-07-30T09:17:40;7.03;;;2.53;;
69034;SDS011;56091;55.756;37.412;2023-07-30T09:22:42;8.13;;;2.70;;
69034;SDS011;56091;55.756;37.412;2023-07-30T09:27:43;6.55;;;2.72;;
69034;SDS011;56091;55.756;37.412;2023-07-30T09:32:51;6.25;;;2.47;;
69034;SDS011;56091;55.756;37.412;2023-07-30T09:37:58;5.00;;;2.30;;
69034;SDS011;56091;55.756;37.412;2023-07-30T09:42:59;5.72;;;2.10;;
69034;SDS011;56091;55.756;37.412;2023-07-30T09:48:00;6.13;;;2.50;;
69034;SDS011;56091;55.756;37.412;2023-07-30T09:53:03;6.93;;;2.40;;
69034;SDS011;56091;55.756;37.412;2023-07-30T09:58:03;6.85;;;2.40;;
69034;SDS011;56091;55.756;37.412;2023-07-30T10:03:04;8.10;;;2.37;;
69034;SDS011;56091;55.756;37.412;2023-07-30T10:08:08;6.75;;;2.35;;
69034;SDS011;56091;55.756;37.412;2023-07-30T10:13:10;7.53;;;2.33;;
69034;SDS011;56091;55.756;37.412;2023-07-30T10:18:12;6.03;;;2.45;;
69034;SDS011;56091;55.756;37.412;2023-07-30T10:23:13;6.40;;;2.27;;
69034;SDS011;56091;55.756;37.412;2023-07-30T10:33:50;5.90;;;2.37;;
69034;SDS011;56091;55.756;37.412;2023-07-30T10:38:52;5.03;;;2.10;;
69034;SDS011;56091;55.756;37.412;2023-07-30T10:43:53;5.22;;;2.10;;
69034;SDS011;56091;55.756;37.412;2023-07-30T10:49:00;7.07;;;2.33;;
69034;SDS011;56091;55.756;37.412;2023-07-30T10:54:00;5.90;;;2.20;;
69034;SDS011;56091;55.756;37.412;2023-07-30T10:59:02;4.47;;;1.97;;
69034;SDS011;56091;55.756;37.412;2023-07-30T11:04:05;4.38;;;1.92;;
69034;SDS011;56091;55.756;37.412;2023-07-30T11:09:17;5.73;;;2.30;;
69034;SDS011;56091;55.756;37.412;2023-07-30T11:14:18;4.40;;;2.17;;
69034;SDS011;56091;55.756;37.412;2023-07-30T11:19:22;5.65;;;2.40;;
69034;SDS011;56091;55.756;37.412;2023-07-30T11:24:33;6.37;;;2.40;;
69034;SDS011;56091;55.756;37.412;2023-07-30T11:29:33;8.05;;;2.40;;
69034;SDS011;56091;55.756;37.412;2023-07-30T11:34:44;6.15;;;2.40;;
69034;SDS011;56091;55.756;37.412;2023-07-30T11:39:45;5.23;;;2.07;;
69034;SDS011;56091;55.756;37.412;2023-07-30T11:44:45;5.53;;;2.63;;
69034;SDS011;56091;55.756;37.412;2023-07-30T11:49:56;6.13;;;2.10;;
69034;SDS011;56091;55.756;37.412;2023-07-30T11:55:03;7.28;;;2.30;;
69034;SDS011;56091;55.756;37.412;2023-07-30T12:00:05;5.27;;;2.20;;
69034;SDS011;56091;55.756;37.412;2023-07-30T12:05:13;5.83;;;2.23;;
69034;SDS011;56091;55.756;37.412;2023-07-30T12:10:16;4.82;;;1.67;;
69034;SDS011;56091;55.756;37.412;2023-07-30T12:15:17;5.83;;;2.10;;
69034;SDS011;56091;55.756;37.412;2023-07-30T12:20:19;6.00;;;2.17;;
69034;SDS011;56091;55.756;37.412;2023-07-30T12:25:20;7.07;;;1.97;;
69034;SDS011;56091;55.756;37.412;2023-07-30T12:30:20;6.25;;;2.30;;
69034;SDS011;56091;55.756;37.412;2023-07-30T12:35:24;5.07;;;1.90;;
69034;SDS011;56091;55.756;37.412;2023-07-30T12:40:24;5.82;;;2.10;;
69034;SDS011;56091;55.756;37.412;2023-07-30T12:45:25;6.40;;;2.30;;
69034;SDS011;56091;55.756;37.412;2023-07-30T12:50:26;5.18;;;2.50;;
69034;SDS011;56091;55.756;37.412;2023-07-30T12:55:27;5.07;;;2.30;;
69034;SDS011;56091;55.756;37.412;2023-07-30T13:00:27;5.73;;;2.40;;
69034;SDS011;56091;55.756;37.412;2023-07-30T13:05:28;6.78;;;2.40;;
69034;SDS011;56091;55.756;37.412;2023-07-30T13:10:29;5.40;;;1.90;;
69034;SDS011;56091;55.756;37.412;2023-07-30T13:15:30;5.35;;;1.90;;
69034;SDS011;56091;55.756;37.412;2023-07-30T13:20:30;5.53;;;2.30;;
69034;SDS011;56091;55.756;37.412;2023-07-30T13:25:32;4.53;;;2.00;;
69034;SDS011;56091;55.756;37.412;2023-07-30T13:30:33;6.10;;;2.20;;
69034;SDS011;56091;55.756;37.412;2023-07-30T13:35:34;5.70;;;2.17;;
69034;SDS011;56091;55.756;37.412;2023-07-30T13:40:34;5.53;;;2.40;;
69034;SDS011;56091;55.756;37.412;2023-07-30T13:45:36;5.70;;;2.15;;
69034;SDS011;56091;55.756;37.412;2023-07-30T13:50:37;7.97;;;4.50;;
69034;SDS011;56091;55.756;37.412;2023-07-30T13:55:38;5.70;;;4.40;;
69034;SDS011;56091;55.756;37.412;2023-07-30T14:00:40;5.45;;;2.92;;
69034;SDS011;56091;55.756;37.412;2023-07-30T14:05:41;6.23;;;2.00;;
69034;SDS011;56091;55.756;37.412;2023-07-30T14:10:42;8.13;;;4.30;;
69034;SDS011;56091;55.756;37.412;2023-07-30T14:15:43;6.10;;;3.90;;
69034;SDS011;56091;55.756;37.412;2023-07-30T14:20:43;6.20;;;3.90;;
69034;SDS011;56091;55.756;37.412;2023-07-30T14:25:44;5.75;;;3.70;;
69034;SDS011;56091;55.756;37.412;2023-07-30T14:30:47;6.90;;;3.90;;
69034;SDS011;56091;55.756;37.412;2023-07-30T14:35:48;6.72;;;3.80;;
69034;SDS011;56091;55.756;37.412;2023-07-30T14:40:49;6.67;;;3.70;;
69034;SDS011;56091;55.756;37.412;2023-07-30T14:45:49;5.83;;;3.63;;
69034;SDS011;56091;55.756;37.412;2023-07-30T14:50:52;4.90;;;3.47;;
69034;SDS011;56091;55.756;37.412;2023-07-30T14:55:53;5.27;;;3.00;;
69034;SDS011;56091;55.756;37.412;2023-07-30T15:00:54;6.90;;;4.00;;
69034;SDS011;56091;55.756;37.412;2023-07-30T15:05:55;4.43;;;2.00;;
69034;SDS011;56091;55.756;37.412;2023-07-30T15:10:56;7.33;;;4.27;;
69034;SDS011;56091;55.756;37.412;2023-07-30T15:15:56;6.57;;;4.40;;
69034;SDS011;56091;55.756;37.412;2023-07-30T15:21:00;7.43;;;3.90;;
69034;SDS011;56091;55.756;37.412;2023-07-30T15:26:00;5.10;;;3.75;;
69034;SDS011;56091;55.756;37.412;2023-07-30T15:31:02;4.17;;;1.63;;
69034;SDS011;56091;55.756;37.412;2023-07-30T15:36:03;6.28;;;2.30;;
69034;SDS011;56091;55.756;37.412;2023-07-30T15:41:05;5.30;;;3.47;;
69034;SDS011;56091;55.756;37.412;2023-07-30T15:46:06;8.00;;;3.90;;
69034;SDS011;56091;55.756;37.412;2023-07-30T15:51:07;5.00;;;3.30;;
69034;SDS011;56091;55.756;37.412;2023-07-30T15:56:09;6.57;;;2.80;;
69034;SDS011;56091;55.756;37.412;2023-07-30T16:01:09;7.68;;;2.00;;
69034;SDS011;56091;55.756;37.412;2023-07-30T16:06:11;7.77;;;2.10;;
69034;SDS011;56091;55.756;37.412;2023-07-30T16:11:11;4.82;;;2.00;;
69034;SDS011;56091;55.756;37.412;2023-07-30T16:16:15;5.73;;;1.90;;
69034;SDS011;56091;55.756;37.412;2023-07-30T16:21:19;4.50;;;2.08;;
69034;SDS011;56091;55.756;37.412;2023-07-30T16:26:22;5.18;;;1.77;;
69034;SDS011;56091;55.756;37.412;2023-07-30T16:31:23;5.97;;;2.50;;
69034;SDS011;56091;55.756;37.412;2023-07-30T16:36:23;5.77;;;2.33;;
69034;SDS011;56091;55.756;37.412;2023-07-30T16:41:24;7.78;;;2.10;;
69034;SDS011;56091;55.756;37.412;2023-07-30T16:46:25;6.03;;;1.93;;
69034;SDS011;56091;55.756;37.412;2023-07-30T16:51:26;7.20;;;2.10;;
69034;SDS011;56091;55.756;37.412;2023-07-30T16:56:27;5.20;;;2.03;;
69034;SDS011;56091;55.756;37.412;2023-07-30T17:06:35;4.90;;;2.10;;
69034;SDS011;56091;55.756;37.412;2023-07-30T17:11:36;6.07;;;2.50;;
69034;SDS011;56091;55.756;37.412;2023-07-30T17:16:37;5.65;;;2.47;;
69034;SDS011;56091;55.756;37.412;2023-07-30T17:21:37;5.47;;;2.30;;
69034;SDS011;56091;55.756;37.412;2023-07-30T17:26:38;7.60;;;2.50;;
69034;SDS011;56091;55.756;37.412;2023-07-30T17:31:39;7.53;;;2.40;;
69034;SDS011;56091;55.756;37.412;2023-07-30T17:36:43;9.65;;;2.70;;
69034;SDS011;56091;55.756;37.412;2023-07-30T17:41:43;9.83;;;3.60;;
69034;SDS011;56091;55.756;37.412;2023-07-30T17:46:44;9.27;;;3.10;;
69034;SDS011;56091;55.756;37.412;2023-07-30T17:51:45;7.20;;;2.97;;
69034;SDS011;56091;55.756;37.412;2023-07-30T17:56:45;8.00;;;2.77;;
69034;SDS011;56091;55.756;37.412;2023-07-30T18:01:46;6.13;;;2.30;;
69034;SDS011;56091;55.756;37.412;2023-07-30T18:06:46;5.40;;;2.50;;
69034;SDS011;56091;55.756;37.412;2023-07-30T18:11:47;8.05;;;2.60;;
69034;SDS011;56091;55.756;37.412;2023-07-30T18:16:48;7.33;;;2.70;;
69034;SDS011;56091;55.756;37.412;2023-07-30T18:21:48;5.93;;;2.80;;
69034;SDS011;56091;55.756;37.412;2023-07-30T18:26:53;7.57;;;2.80;;
69034;SDS011;56091;55.756;37.412;2023-07-30T18:32:03;8.53;;;3.10;;
69034;SDS011;56091;55.756;37.412;2023-07-30T18:37:04;7.53;;;2.97;;
69034;SDS011;56091;55.756;37.412;2023-07-30T18:42:05;7.93;;;3.00;;
69034;SDS011;56091;55.756;37.412;2023-07-30T18:47:05;7.77;;;3.10;;
69034;SDS011;56091;55.756;37.412;2023-07-30T18:52:08;9.25;;;3.22;;
69034;SDS011;56091;55.756;37.412;2023-07-30T18:57:09;6.50;;;3.37;;
69034;SDS011;56091;55.756;37.412;2023-07-30T19:02:10;8.60;;;3.70;;
69034;SDS011;56091;55.756;37.412;2023-07-30T19:07:11;8.07;;;3.60;;
69034;SDS011;56091;55.756;37.412;2023-07-30T19:12:12;8.52;;;3.47;;
69034;SDS011;56091;55.756;37.412;2023-07-30T19:17:12;8.70;;;3.50;;
69034;SDS011;56091;55.756;37.412;2023-07-30T19:22:13;9.40;;;3.13;;
69034;SDS011;56091;55.756;37.412;2023-07-30T19:27:16;8.25;;;3.50;;
69034;SDS011;56091;55.756;37.412;2023-07-30T19:32:17;8.50;;;3.57;;
69034;SDS011;56091;55.756;37.412;2023-07-30T19:37:17;7.60;;;3.63;;
69034;SDS011;56091;55.756;37.412;2023-07-30T19:42:18;7.27;;;3.33;;
69034;SDS011;56091;55.756;37.412;2023-07-30T19:47:21;7.93;;;3.70;;
69034;SDS011;56091;55.756;37.412;2023-07-30T19:52:24;10.10;;;3.70;;
69034;SDS011;56091;55.756;37.412;2023-07-30T19:57:27;9.13;;;3.67;;
69034;SDS011;56091;55.756;37.412;2023-07-30T20:02:29;13.13;;;4.13;;
69034;SDS011;56091;55.756;37.412;2023-07-30T20:07:30;8.50;;;3.63;;
69034;SDS011;56091;55.756;37.412;2023-07-30T20:12:31;7.85;;;3.55;;
69034;SDS011;56091;55.756;37.412;2023-07-30T20:17:31;7.80;;;3.30;;
69034;SDS011;56091;55.756;37.412;2023-07-30T20:22:32;8.17;;;3.60;;
69034;SDS011;56091;55.756;37.412;2023-07-30T20:27:33;7.97;;;3.55;;
69034;SDS011;56091;55.756;37.412;2023-07-30T20:32:33;8.57;;;3.57;;
69034;SDS011;56091;55.756;37.412;2023-07-30T20:37:34;6.83;;;3.50;;
69034;SDS011;56091;55.756;37.412;2023-07-30T20:42:34;10.40;;;4.00;;
69034;SDS011;56091;55.756;37.412;2023-07-30T20:47:35;9.82;;;3.80;;
69034;SDS011;56091;55.756;37.412;2023-07-30T20:52:37;11.10;;;3.60;;
69034;SDS011;56091;55.756;37.412;2023-07-30T20:57:38;10.18;;;3.85;;
69034;SDS011;56091;55.756;37.412;2023-07-30T21:02:39;8.77;;;4.17;;
69034;SDS011;56091;55.756;37.412;2023-07-30T21:07:40;9.55;;;4.25;;
69034;SDS011;56091;55.756;37.412;2023-07-30T21:12:40;12.00;;;4.20;;
69034;SDS011;56091;55.756;37.412;2023-07-30T21:17:43;13.95;;;4.22;;
69034;SDS011;56091;55.756;37.412;2023-07-30T21:22:49;9.13;;;3.80;;
69034;SDS011;56091;55.756;37.412;2023-07-30T21:27:50;8.83;;;3.57;;
69034;SDS011;56091;55.756;37.412;2023-07-30T21:32:51;8.83;;;3.17;;
69034;SDS011;56091;55.756;37.412;2023-07-30T21:37:51;11.37;;;3.80;;
69034;SDS011;56091;55.756;37.412;2023-07-30T21:42:52;8.00;;;3.57;;
69034;SDS011;56091;55.756;37.412;2023-07-30T21:47:53;8.33;;;3.33;;
69034;SDS011;56091;55.756;37.412;2023-07-30T21:52:53;7.82;;;3.05;;
69034;SDS011;56091;55.756;37.412;2023-07-30T21:57:54;8.03;;;2.93;;
69034;SDS011;56091;55.756;37.412;2023-07-30T22:02:55;9.10;;;3.20;;
69034;SDS011;56091;55.756;37.412;2023-07-30T22:07:59;8.30;;;3.10;;
69034;SDS011;56091;55.756;37.412;2023-07-30T22:13:04;7.27;;;2.90;;
69034;SDS011;56091;55.756;37.412;2023-07-30T22:18:05;7.25;;;3.05;;
69034;SDS011;56091;55.756;37.412;2023-07-30T22:23:05;6.97;;;2.83;;
69034;SDS011;56091;55.756;37.412;2023-07-30T22:28:06;10.77;;;3.28;;
69034;SDS011;56091;55.756;37.412;2023-07-30T22:33:07;8.63;;;2.90;;
69034;SDS011;56091;55.756;37.412;2023-07-30T22:38:08;7.47;;;3.20;;
69034;SDS011;56091;55.756;37.412;2023-07-30T22:43:08;5.80;;;2.60;;
69034;SDS011;56091;55.756;37.412;2023-07-30T22:48:09;6.37;;;2.53;;
69034;SDS011;56091;55.756;37.412;2023-07-30T22:53:10;6.03;;;2.30;;
69034;SDS011;56091;55.756;37.412;2023-07-30T22:58:10;7.03;;;2.35;;
69034;SDS011;56091;55.756;37.412;2023-07-30T23:03:11;7.20;;;2.57;;
69034;SDS011;56091;55.756;37.412;2023-07-30T23:08:12;6.93;;;2.60;;
69034;SDS011;56091;55.756;37.412;2023-07-30T23:13:13;6.80;;;2.90;;
69034;SDS011;56091;55.756;37.412;2023-07-30T23:18:16;6.07;;;2.90;;
69034;SDS011;56091;55.756;37.412;2023-07-30T23:23:17;6.47;;;2.78;;
69034;SDS011;56091;55.756;37.412;2023-07-30T23:28:17;5.93;;;2.80;;
69034;SDS011;56091;55.756;37.412;2023-07-30T23:33:18;7.28;;;2.90;;
69034;SDS011;56091;55.756;37.412;2023-07-30T23:38:19;7.07;;;2.80;;
69034;SDS011;56091;55.756;37.412;2023-07-30T23:43:19;6.70;;;2.23;;
69034;SDS011;56091;55.756;37.412;2023-07-30T23:48:20;9.13;;;2.67;;
69034;SDS011;56091;55.756;37.412;2023-07-30T23:53:24;7.33;;;2.70;;
69034;SDS011;56091;55.756;37.412;2023-07-30T23:58:24;6.83;;;2.50;;
